OAS9715 SKSM-SKBO
Flight info
| Callsign | OAS9715 |
|---|---|
| Flight time | N/A |
| Altitude | 34000 |
| Route | SUPLI1A LOKOV UG444 EJA UQ119 ILSEV ILSEV5W |
| Aircraft | A320/M-SDE3FGHIRWY/LB1 |
Departure
| Time | N/A |
|---|---|
| Airport | Simón Bolívar International Airport (SKSM) |
Arrival
| Time | 2026-05-03 20:50 |
|---|---|
| Airport | El Dorado International Airport (SKBO) |
| Time | Latitude | Longitude | Altitude | Speed | Heading |
|---|---|---|---|---|---|
| 2026-05-03 20:15 | 8.09215 | -73.89393 | 33897 ft | 458 kts | 171° |
| 2026-05-03 20:15 | 8.02903 | -73.88470 | 33899 ft | 458 kts | 173° |
| 2026-05-03 20:16 | 7.96556 | -73.87894 | 33897 ft | 459 kts | 176° |
| 2026-05-03 20:16 | 7.90189 | -73.87492 | 33898 ft | 458 kts | 176° |
| 2026-05-03 20:17 | 7.83822 | -73.87046 | 33903 ft | 458 kts | 175° |
| 2026-05-03 20:17 | 7.77475 | -73.86532 | 33898 ft | 458 kts | 175° |
| 2026-05-03 20:18 | 7.71116 | -73.86003 | 33899 ft | 458 kts | 175° |
| 2026-05-03 20:18 | 7.64765 | -73.85498 | 33902 ft | 458 kts | 175° |
| 2026-05-03 20:19 | 7.58414 | -73.84999 | 33895 ft | 458 kts | 175° |
| 2026-05-03 20:19 | 7.52053 | -73.84493 | 33898 ft | 458 kts | 175° |
| 2026-05-03 20:20 | 7.45699 | -73.83981 | 33897 ft | 458 kts | 175° |
| 2026-05-03 20:20 | 7.39335 | -73.83462 | 33898 ft | 459 kts | 175° |
| 2026-05-03 20:21 | 7.32965 | -73.82957 | 33894 ft | 459 kts | 175° |
| 2026-05-03 20:21 | 7.26597 | -73.82449 | 33881 ft | 459 kts | 175° |
| 2026-05-03 20:22 | 7.20229 | -73.81936 | 33868 ft | 459 kts | 175° |
| 2026-05-03 20:22 | 7.13872 | -73.81434 | 33860 ft | 458 kts | 175° |
| 2026-05-03 20:23 | 7.07517 | -73.80935 | 33856 ft | 458 kts | 175° |
| 2026-05-03 20:23 | 7.01157 | -73.80884 | 33855 ft | 458 kts | 188° |
| 2026-05-03 20:24 | 6.94892 | -73.82037 | 33853 ft | 458 kts | 190° |
| 2026-05-03 20:24 | 6.88600 | -73.83216 | 33858 ft | 459 kts | 190° |
| 2026-05-03 20:25 | 6.82332 | -73.84383 | 33878 ft | 458 kts | 190° |
| 2026-05-03 20:25 | 6.76072 | -73.85559 | 33895 ft | 458 kts | 190° |
| 2026-05-03 20:26 | 6.69797 | -73.86744 | 33911 ft | 458 kts | 190° |
| 2026-05-03 20:26 | 6.63580 | -73.87907 | 33918 ft | 458 kts | 190° |
| 2026-05-03 20:27 | 6.57311 | -73.89076 | 33924 ft | 458 kts | 190° |
| 2026-05-03 20:27 | 6.51050 | -73.90251 | 33929 ft | 458 kts | 190° |
| 2026-05-03 20:28 | 6.44788 | -73.91424 | 33928 ft | 458 kts | 190° |
| 2026-05-03 20:28 | 6.38515 | -73.92600 | 33932 ft | 459 kts | 190° |
| 2026-05-03 20:29 | 6.32245 | -73.93771 | 33940 ft | 459 kts | 189° |
| 2026-05-03 20:29 | 6.25960 | -73.94940 | 33946 ft | 459 kts | 189° |
| 2026-05-03 20:30 | 6.19668 | -73.96111 | 33950 ft | 460 kts | 189° |
| 2026-05-03 20:30 | 6.13372 | -73.97289 | 33957 ft | 461 kts | 189° |
| 2026-05-03 20:31 | 6.07063 | -73.98471 | 33925 ft | 464 kts | 189° |
| 2026-05-03 20:31 | 6.03881 | -73.99067 | 33378 ft | 467 kts | 189° |
| 2026-05-03 20:31 | 6.00688 | -73.99664 | 32737 ft | 464 kts | 189° |
| 2026-05-03 20:31 | 5.97540 | -74.00256 | 32145 ft | 459 kts | 189° |
| 2026-05-03 20:32 | 5.94403 | -74.00849 | 31543 ft | 456 kts | 189° |
| 2026-05-03 20:32 | 5.91307 | -74.01438 | 30952 ft | 452 kts | 189° |
| 2026-05-03 20:32 | 5.88224 | -74.02024 | 30380 ft | 450 kts | 189° |
| 2026-05-03 20:32 | 5.85163 | -74.02605 | 29770 ft | 447 kts | 189° |
| 2026-05-03 20:33 | 5.82117 | -74.03185 | 29176 ft | 442 kts | 189° |
| 2026-05-03 20:33 | 5.79115 | -74.03756 | 28619 ft | 438 kts | 189° |
| 2026-05-03 20:33 | 5.76128 | -74.04325 | 28060 ft | 434 kts | 189° |
| 2026-05-03 20:33 | 5.73183 | -74.04888 | 27507 ft | 430 kts | 189° |
| 2026-05-03 20:34 | 5.70252 | -74.05447 | 26982 ft | 427 kts | 189° |
| 2026-05-03 20:34 | 5.67340 | -74.05999 | 26447 ft | 424 kts | 189° |
| 2026-05-03 20:34 | 5.64453 | -74.06544 | 25931 ft | 422 kts | 189° |
| 2026-05-03 20:34 | 5.61573 | -74.07087 | 25433 ft | 418 kts | 189° |
| 2026-05-03 20:35 | 5.58727 | -74.07624 | 24949 ft | 415 kts | 189° |
| 2026-05-03 20:35 | 5.55892 | -74.08159 | 24462 ft | 413 kts | 189° |
| 2026-05-03 20:35 | 5.53080 | -74.08688 | 23977 ft | 411 kts | 188° |
| 2026-05-03 20:35 | 5.50271 | -74.09221 | 23478 ft | 410 kts | 188° |
| 2026-05-03 20:36 | 5.47476 | -74.09754 | 22947 ft | 407 kts | 188° |
| 2026-05-03 20:36 | 5.44725 | -74.10367 | 22464 ft | 405 kts | 196° |
| 2026-05-03 20:36 | 5.42156 | -74.11497 | 22036 ft | 403 kts | 209° |
| 2026-05-03 20:36 | 5.39905 | -74.13141 | 21697 ft | 398 kts | 221° |
| 2026-05-03 20:37 | 5.38010 | -74.15152 | 21191 ft | 397 kts | 227° |
| 2026-05-03 20:37 | 5.36173 | -74.17233 | 20684 ft | 397 kts | 227° |
| 2026-05-03 20:37 | 5.34351 | -74.19296 | 20222 ft | 395 kts | 227° |
| 2026-05-03 20:37 | 5.32539 | -74.21350 | 19845 ft | 390 kts | 227° |
| 2026-05-03 20:38 | 5.31349 | -74.22697 | 19479 ft | 390 kts | 227° |
| 2026-05-03 20:38 | 5.29561 | -74.24717 | 19095 ft | 385 kts | 227° |
| 2026-05-03 20:38 | 5.27783 | -74.26728 | 18639 ft | 384 kts | 227° |
| 2026-05-03 20:38 | 5.26044 | -74.28703 | 18507 ft | 372 kts | 229° |
| 2026-05-03 20:39 | 5.24636 | -74.30809 | 18206 ft | 358 kts | 243° |
| 2026-05-03 20:39 | 5.23827 | -74.33128 | 17723 ft | 350 kts | 259° |
| 2026-05-03 20:39 | 5.23630 | -74.35563 | 17613 ft | 349 kts | 273° |
| 2026-05-03 20:39 | 5.23832 | -74.38004 | 17631 ft | 351 kts | 275° |
| 2026-05-03 20:40 | 5.23958 | -74.40447 | 17566 ft | 351 kts | 265° |
| 2026-05-03 20:40 | 5.23431 | -74.42810 | 17428 ft | 346 kts | 245° |
| 2026-05-03 20:40 | 5.22199 | -74.44825 | 17146 ft | 334 kts | 225° |
| 2026-05-03 20:40 | 5.20436 | -74.46285 | 16785 ft | 326 kts | 206° |
| 2026-05-03 20:41 | 5.18354 | -74.47096 | 16438 ft | 318 kts | 188° |
| 2026-05-03 20:41 | 5.16183 | -74.47239 | 16094 ft | 309 kts | 171° |
| 2026-05-03 20:41 | 5.14104 | -74.46830 | 15771 ft | 304 kts | 164° |
| 2026-05-03 20:41 | 5.12052 | -74.46351 | 15447 ft | 302 kts | 164° |
| 2026-05-03 20:42 | 5.10007 | -74.45878 | 15131 ft | 301 kts | 164° |
| 2026-05-03 20:42 | 5.07962 | -74.45409 | 14805 ft | 301 kts | 164° |
| 2026-05-03 20:42 | 5.05928 | -74.44943 | 14482 ft | 299 kts | 164° |
| 2026-05-03 20:42 | 5.03901 | -74.44480 | 14163 ft | 297 kts | 164° |
| 2026-05-03 20:43 | 5.01897 | -74.44020 | 13840 ft | 293 kts | 164° |
| 2026-05-03 20:43 | 4.99944 | -74.43571 | 13505 ft | 283 kts | 164° |
| 2026-05-03 20:43 | 4.98042 | -74.43133 | 13192 ft | 280 kts | 165° |
| 2026-05-03 20:43 | 4.96149 | -74.42695 | 12883 ft | 278 kts | 165° |
| 2026-05-03 20:44 | 4.94262 | -74.42260 | 12798 ft | 279 kts | 165° |
| 2026-05-03 20:44 | 4.92384 | -74.41798 | 12713 ft | 275 kts | 159° |
| 2026-05-03 20:44 | 4.90686 | -74.41002 | 12622 ft | 265 kts | 144° |
| 2026-05-03 20:44 | 4.89263 | -74.39883 | 12515 ft | 255 kts | 138° |
| 2026-05-03 20:45 | 4.87928 | -74.38753 | 12406 ft | 249 kts | 138° |
| 2026-05-03 20:45 | 4.86645 | -74.37620 | 12300 ft | 242 kts | 129° |
| 2026-05-03 20:45 | 4.85656 | -74.36303 | 12189 ft | 231 kts | 124° |
| 2026-05-03 20:45 | 4.84729 | -74.35004 | 12101 ft | 229 kts | 126° |
| 2026-05-03 20:46 | 4.83771 | -74.33721 | 12004 ft | 229 kts | 126° |
| 2026-05-03 20:46 | 4.82807 | -74.32448 | 11884 ft | 230 kts | 126° |
| 2026-05-03 20:46 | 4.81850 | -74.31184 | 11646 ft | 225 kts | 126° |
| 2026-05-03 20:46 | 4.80908 | -74.29941 | 11395 ft | 222 kts | 126° |
| 2026-05-03 20:47 | 4.79977 | -74.28710 | 11142 ft | 221 kts | 127° |
| 2026-05-03 20:47 | 4.79044 | -74.27478 | 10880 ft | 222 kts | 126° |
| 2026-05-03 20:47 | 4.78126 | -74.26264 | 10634 ft | 220 kts | 127° |
| 2026-05-03 20:47 | 4.77207 | -74.25051 | 10393 ft | 211 kts | 127° |
| 2026-05-03 20:48 | 4.76336 | -74.23900 | 10163 ft | 206 kts | 127° |
| 2026-05-03 20:48 | 4.75454 | -74.22736 | 9909 ft | 206 kts | 127° |
| 2026-05-03 20:48 | 4.74626 | -74.21641 | 9646 ft | 192 kts | 127° |
| 2026-05-03 20:48 | 4.73863 | -74.20634 | 9402 ft | 174 kts | 127° |
| 2026-05-03 20:49 | 4.73124 | -74.19657 | 9136 ft | 174 kts | 128° |
| 2026-05-03 20:49 | 4.72408 | -74.18712 | 8876 ft | 172 kts | 128° |
| 2026-05-03 20:49 | 4.71687 | -74.17760 | 8630 ft | 171 kts | 129° |
| 2026-05-03 20:49 | 4.70967 | -74.16809 | 8385 ft | 171 kts | 129° |
| 2026-05-03 20:50 | 4.70351 | -74.15973 | 8372 ft | 114 kts | 125° |
| 2026-05-03 20:50 | 4.69993 | -74.15507 | 8372 ft | 61 kts | 133° |
| 2026-05-03 20:50 | 4.69749 | -74.15176 | 8373 ft | 56 kts | 110° |
| 2026-05-03 20:50 | 4.69711 | -74.14896 | 8370 ft | 21 kts | 89° |
| 2026-05-03 20:51 | 4.69757 | -74.14813 | 8370 ft | 12 kts | 42° |
| 2026-05-03 20:51 | 4.69822 | -74.14777 | 8370 ft | 9 kts | 30° |
| 2026-05-03 20:51 | 4.69856 | -74.14735 | 8370 ft | 6 kts | 84° |
| 2026-05-03 20:51 | 4.69841 | -74.14701 | 8371 ft | 5 kts | 125° |
| 2026-05-03 20:52 | 4.69814 | -74.14667 | 8370 ft | 7 kts | 126° |
| 2026-05-03 20:52 | 4.69816 | -74.14618 | 8370 ft | 7 kts | 69° |
| 2026-05-03 20:52 | 4.69825 | -74.14597 | 8370 ft | 1 kts | 68° |
| 2026-05-03 20:52 | 4.69828 | -74.14590 | 8370 ft | 0 kts | 68° |